createdAt,value
2019-04-07T00:01:52.653Z,55.00
2019-04-07T00:04:22.911Z,58.67
2019-04-07T00:06:53.285Z,52.63
2019-04-07T00:09:23.548Z,53.47
2019-04-07T00:11:53.665Z,53.10
2019-04-07T00:14:23.783Z,56.93
2019-04-07T00:16:54.005Z,52.80
2019-04-07T00:19:24.430Z,59.67
2019-04-07T00:21:57.315Z,50.37
2019-04-07T00:24:27.642Z,50.93
2019-04-07T00:26:57.963Z,51.17
2019-04-07T00:29:28.807Z,53.47
2019-04-07T00:31:59.225Z,54.77
2019-04-07T00:34:29.345Z,54.63
2019-04-07T00:37:02.939Z,51.80
2019-04-07T00:39:33.546Z,52.67
2019-04-07T00:42:03.903Z,49.90
2019-04-07T00:44:34.392Z,53.50
2019-04-07T00:47:05.212Z,52.87
2019-04-07T00:49:35.737Z,55.47
2019-04-07T00:52:08.310Z,58.20
2019-04-07T00:54:39.097Z,50.37
2019-04-07T00:57:09.833Z,54.20
2019-04-07T00:59:40.216Z,53.00
2019-04-07T01:02:11.312Z,55.30
2019-04-07T01:04:41.863Z,54.27
2019-04-07T01:07:12.925Z,62.00
2019-04-07T01:09:43.250Z,58.30
2019-04-07T01:12:13.922Z,58.07
2019-04-07T01:14:44.358Z,52.13
2019-04-07T01:17:14.941Z,54.43
2019-04-07T01:19:45.469Z,51.70
2019-04-07T01:22:15.742Z,55.93
2019-04-07T01:24:46.882Z,54.40
2019-04-07T01:27:17.002Z,56.20
2019-04-07T01:29:47.524Z,58.10
2019-04-07T01:32:17.677Z,59.50
2019-04-07T01:34:47.697Z,50.33
2019-04-07T01:37:17.788Z,55.97
2019-04-07T01:39:48.111Z,62.47
2019-04-07T01:42:22.919Z,58.37
2019-04-07T01:45:10.518Z,55.83
2019-04-07T01:47:54.206Z,57.67
2019-04-07T01:50:42.800Z,58.80
2019-04-07T01:53:26.708Z,51.67
2019-04-07T01:56:01.808Z,50.00
2019-04-07T01:58:37.025Z,51.00
2019-04-07T02:01:25.527Z,52.23
2019-04-07T02:04:13.875Z,46.73
2019-04-07T02:07:01.951Z,51.10
2019-04-07T02:09:50.597Z,55.00
2019-04-07T02:12:31.398Z,55.17
2019-04-07T02:15:06.346Z,53.20
2019-04-07T02:17:54.714Z,53.93
2019-04-07T02:21:02.134Z,50.37
2019-04-07T02:23:40.547Z,51.13
2019-04-07T02:26:15.692Z,55.93
2019-04-07T02:28:51.614Z,55.43
2019-04-07T02:31:29.724Z,51.70
2019-04-07T02:34:11.685Z,54.23
2019-04-07T02:36:43.784Z,50.30
2019-04-07T02:39:15.749Z,50.53
2019-04-07T02:41:57.106Z,54.70
2019-04-07T02:44:38.908Z,56.90
2019-04-07T02:47:29.698Z,55.57
2019-04-07T02:50:04.771Z,53.07
2019-04-07T02:52:45.427Z,55.50
2019-04-07T02:55:23.808Z,55.70
2019-04-07T02:58:04.548Z,54.80
2019-04-07T03:00:39.417Z,53.90
2019-04-07T03:03:27.249Z,57.90
2019-04-07T03:05:59.713Z,59.77
2019-04-07T03:08:37.819Z,55.77
2019-04-07T03:11:12.375Z,51.80
2019-04-07T03:13:54.097Z,49.13
2019-04-07T03:16:35.742Z,50.37
2019-04-07T03:19:20.107Z,50.87
2019-04-07T03:22:01.187Z,51.40
2019-04-07T03:24:51.781Z,62.43
2019-04-07T03:27:27.007Z,56.07
2019-04-07T03:30:14.298Z,53.80
2019-04-07T03:32:48.931Z,56.17
2019-04-07T03:35:27.913Z,59.13
2019-04-07T03:37:59.237Z,56.73
2019-04-07T03:40:33.970Z,57.33
2019-04-07T03:43:21.732Z,50.30
2019-04-07T03:46:06.039Z,53.37
2019-04-07T03:48:41.617Z,57.23
2019-04-07T03:51:30.151Z,56.87
2019-04-07T03:54:05.058Z,51.60
2019-04-07T03:56:37.260Z,50.47
2019-04-07T03:59:16.215Z,56.40
2019-04-07T04:02:00.407Z,52.10
2019-04-07T04:04:32.597Z,53.43
2019-04-07T04:07:20.268Z,56.07
2019-04-07T04:09:55.981Z,54.00
2019-04-07T04:12:35.511Z,59.10
2019-04-07T04:15:09.530Z,51.53
2019-04-07T04:17:39.853Z,55.40
2019-04-07T04:20:10.584Z,53.50
2019-04-07T04:22:41.015Z,55.90
2019-04-07T04:25:11.437Z,50.83
2019-04-07T04:27:41.985Z,55.53
2019-04-07T04:30:13.424Z,59.10
2019-04-07T04:32:43.821Z,57.37
2019-04-07T04:35:14.792Z,57.83
2019-04-07T04:37:50.926Z,59.33
2019-04-07T04:40:20.593Z,57.93
2019-04-07T04:42:51.909Z,55.43
2019-04-07T04:45:22.511Z,61.20
2019-04-07T04:47:53.686Z,58.63
2019-04-07T04:50:24.180Z,57.43
2019-04-07T04:52:56.809Z,57.53
2019-04-07T04:55:27.410Z,57.17
2019-04-07T04:57:57.823Z,53.20
2019-04-07T05:00:29.208Z,57.03
2019-04-07T05:02:59.434Z,55.73
2019-04-07T05:05:30.304Z,58.83
2019-04-07T05:08:03.592Z,57.33
2019-04-07T05:10:32.320Z,57.73
2019-04-07T05:13:02.647Z,58.40
2019-04-07T05:15:32.771Z,54.30
2019-04-07T05:18:05.552Z,54.47
2019-04-07T05:20:36.598Z,60.93
2019-04-07T05:23:06.707Z,59.20
2019-04-07T05:25:36.959Z,55.13
2019-04-07T05:28:09.002Z,56.43
2019-04-07T05:30:39.315Z,61.40
2019-04-07T05:33:09.954Z,60.70
2019-04-07T05:35:40.492Z,56.70
2019-04-07T05:38:12.449Z,60.47
2019-04-07T05:40:43.251Z,56.97
2019-04-07T05:43:13.703Z,50.83
2019-04-07T05:45:44.031Z,53.90
2019-04-07T05:48:17.345Z,57.53
2019-04-07T05:50:46.103Z,53.90
2019-04-07T05:53:17.011Z,55.63
2019-04-07T05:55:47.683Z,55.33
2019-04-07T05:58:18.017Z,58.70
2019-04-07T06:00:49.409Z,55.17
2019-04-07T06:03:20.456Z,54.57
2019-04-07T06:05:51.275Z,53.50
2019-04-07T06:08:29.325Z,53.77
2019-04-07T06:10:56.909Z,58.23
2019-04-07T06:13:25.369Z,53.80
2019-04-07T06:15:55.599Z,58.83
2019-04-07T06:18:26.037Z,49.57
2019-04-07T06:20:56.434Z,57.40
2019-04-07T06:23:29.370Z,58.43
2019-04-07T06:25:59.460Z,57.20
2019-04-07T06:28:35.815Z,61.00
2019-04-07T06:31:08.252Z,64.87
2019-04-07T06:33:39.338Z,64.70
2019-04-07T06:36:10.354Z,64.73
2019-04-07T06:38:43.281Z,59.97
2019-04-07T06:41:12.675Z,59.80
2019-04-07T06:43:42.882Z,55.37
2019-04-07T06:46:27.636Z,57.57
2019-04-07T06:48:56.705Z,56.20
2019-04-07T06:51:44.553Z,110.43
2019-04-07T06:54:25.551Z,560.20
2019-04-07T06:57:13.889Z,346.70
2019-04-07T06:59:52.465Z,260.70
2019-04-07T07:02:31.635Z,218.60
2019-04-07T07:05:20.296Z,194.77
2019-04-07T07:07:52.152Z,204.37
2019-04-07T07:10:40.955Z,189.93
2019-04-07T07:13:25.770Z,169.60
2019-04-07T07:15:51.855Z,156.60
2019-04-07T07:18:24.217Z,158.13
2019-04-07T07:21:01.720Z,153.10
2019-04-07T07:23:34.791Z,148.53
2019-04-07T07:26:05.950Z,139.50
2019-04-07T07:28:36.751Z,138.33
2019-04-07T07:31:07.795Z,126.73
2019-04-07T07:33:40.664Z,124.77
2019-04-07T07:36:09.962Z,91.93
2019-04-07T07:38:40.602Z,98.13
2019-04-07T07:41:11.011Z,93.27
2019-04-07T07:43:41.479Z,84.03
2019-04-07T07:46:11.944Z,99.33
2019-04-07T07:48:42.188Z,87.80
2019-04-07T07:51:13.272Z,82.50
2019-04-07T07:53:47.242Z,83.40
2019-04-07T07:56:18.455Z,93.10
2019-04-07T07:58:49.272Z,79.80
2019-04-07T08:01:19.541Z,74.43
2019-04-07T08:03:53.031Z,82.60
2019-04-07T08:06:21.590Z,87.20
2019-04-07T08:08:52.563Z,75.20
2019-04-07T08:11:23.982Z,78.90
2019-04-07T08:13:55.299Z,75.13
2019-04-07T08:16:29.365Z,74.63
2019-04-07T08:18:59.379Z,71.93
2019-04-07T08:21:29.130Z,75.70
2019-04-07T08:23:59.524Z,66.70
2019-04-07T08:26:29.986Z,68.87
2019-04-07T08:29:01.184Z,73.33
2019-04-07T08:31:32.619Z,65.60
2019-04-07T08:34:03.754Z,64.70
2019-04-07T08:36:34.727Z,68.73
2019-04-07T08:39:18.896Z,63.23
2019-04-07T08:41:40.654Z,62.87
2019-04-07T08:44:10.486Z,62.23
2019-04-07T08:46:42.927Z,65.93
2019-04-07T08:49:12.763Z,57.87
2019-04-07T08:51:43.837Z,77.30
2019-04-07T08:54:16.845Z,89.50
2019-04-07T08:56:46.857Z,241.83
2019-04-07T08:59:18.250Z,175.67
2019-04-07T09:01:52.285Z,193.00
2019-04-07T09:04:20.688Z,200.07
2019-04-07T09:06:50.814Z,189.03
2019-04-07T09:09:31.349Z,154.80
2019-04-07T09:11:54.115Z,151.00
2019-04-07T09:14:24.693Z,71.70
2019-04-07T09:17:12.660Z,77.93
2019-04-07T09:19:47.719Z,70.23
2019-04-07T09:22:23.152Z,70.23
2019-04-07T09:24:55.123Z,68.53
2019-04-07T09:27:30.048Z,69.50
2019-04-07T09:30:02.427Z,67.10
2019-04-07T09:32:40.605Z,67.47
2019-04-07T09:35:28.881Z,155.30
2019-04-07T09:38:16.617Z,224.93
2019-04-07T09:41:03.764Z,292.03
2019-04-07T09:43:48.313Z,222.43
2019-04-07T09:46:20.349Z,212.63
2019-04-07T09:49:08.918Z,201.67
2019-04-07T09:51:41.478Z,180.77
2019-04-07T09:54:29.316Z,282.73
2019-04-07T09:57:12.952Z,97.00
2019-04-07T10:00:01.905Z,149.07
2019-04-07T10:02:35.577Z,132.27
2019-04-07T10:05:24.236Z,105.10
2019-04-07T10:08:13.945Z,136.97
2019-04-07T10:11:03.027Z,120.40
2019-04-07T10:13:34.902Z,128.23
2019-04-07T10:16:08.967Z,61.37
2019-04-07T10:18:56.535Z,112.90
2019-04-07T10:21:32.376Z,262.00
2019-04-07T10:24:05.198Z,117.50
2019-04-07T10:26:37.997Z,79.63
2019-04-07T10:29:22.994Z,81.90
2019-04-07T10:32:07.744Z,68.20
2019-04-07T10:34:39.724Z,62.60
2019-04-07T10:37:14.649Z,58.20
2019-04-07T10:39:46.792Z,57.93
2019-04-07T10:42:34.711Z,75.00
2019-04-07T10:45:09.155Z,58.20
2019-04-07T10:47:41.259Z,75.87
2019-04-07T10:50:19.982Z,60.63
2019-04-07T10:52:56.200Z,54.47
2019-04-07T10:55:40.607Z,61.63
2019-04-07T10:58:27.890Z,140.13
2019-04-07T11:01:19.400Z,196.37
2019-04-07T11:04:06.538Z,201.73
2019-04-07T11:06:45.019Z,166.67
2019-04-07T11:09:29.983Z,163.30
2019-04-07T11:12:01.931Z,156.00
2019-04-07T11:14:46.580Z,135.53
2019-04-07T11:17:18.416Z,114.83
2019-04-07T11:19:50.160Z,115.07
2019-04-07T11:22:38.410Z,120.10
2019-04-07T11:25:27.319Z,106.00
2019-04-07T11:28:14.280Z,100.03
2019-04-07T11:30:46.151Z,91.20
2019-04-07T11:33:30.185Z,83.20
2019-04-07T11:36:20.573Z,78.30
2019-04-07T11:39:07.806Z,74.97
2019-04-07T11:41:55.544Z,73.80
2019-04-07T11:44:36.609Z,69.33
2019-04-07T11:47:08.831Z,66.90
2019-04-07T11:49:44.762Z,63.57
2019-04-07T11:52:16.590Z,66.30
2019-04-07T11:54:52.057Z,63.10
2019-04-07T11:57:27.093Z,57.77
2019-04-07T11:59:59.033Z,57.70
2019-04-07T12:02:44.254Z,54.80
2019-04-07T12:05:20.116Z,57.93
2019-04-07T12:07:55.233Z,57.07
2019-04-07T12:10:40.471Z,53.00
2019-04-07T12:13:15.393Z,47.70
2019-04-07T12:15:50.852Z,50.90
2019-04-07T12:18:29.740Z,47.33
2019-04-07T12:21:08.906Z,45.50
2019-04-07T12:23:44.327Z,46.30
2019-04-07T12:26:34.655Z,64.47
2019-04-07T12:29:22.175Z,118.93
2019-04-07T12:31:57.778Z,100.53
2019-04-07T12:34:33.269Z,91.37
2019-04-07T12:37:06.824Z,61.10
2019-04-07T12:39:55.443Z,59.83
2019-04-07T12:42:27.770Z,52.17
2019-04-07T12:45:02.309Z,54.53
2019-04-07T12:47:50.650Z,64.93
2019-04-07T12:50:35.488Z,53.57
2019-04-07T12:53:19.710Z,52.50
2019-04-07T12:56:02.356Z,62.17
2019-04-07T12:58:36.898Z,88.10
2019-04-07T13:01:17.674Z,242.97
2019-04-07T13:03:45.160Z,96.87
2019-04-07T13:06:23.030Z,64.23
2019-04-07T13:08:56.715Z,53.77
2019-04-07T13:11:33.800Z,54.23
2019-04-07T13:14:18.296Z,51.47
2019-04-07T13:16:50.362Z,44.63
2019-04-07T13:19:26.306Z,46.87
2019-04-07T13:22:00.820Z,42.43
2019-04-07T13:24:48.602Z,44.40
2019-04-07T13:27:39.038Z,45.53
2019-04-07T13:30:18.149Z,41.17
2019-04-07T13:32:54.176Z,42.43
2019-04-07T13:35:26.194Z,42.37
2019-04-07T13:37:57.855Z,180.10
2019-04-07T13:40:32.809Z,69.57
2019-04-07T13:43:05.697Z,65.10
2019-04-07T13:45:47.240Z,50.17
2019-04-07T13:48:32.274Z,43.63
2019-04-07T13:51:07.597Z,39.40
2019-04-07T13:53:48.652Z,37.90
2019-04-07T13:56:32.069Z,38.70
2019-04-07T13:59:12.789Z,37.50
2019-04-07T14:01:51.327Z,36.00
2019-04-07T14:04:37.572Z,41.77
2019-04-07T14:07:19.021Z,44.03
2019-04-07T14:09:51.854Z,44.37
2019-04-07T14:12:32.380Z,36.20
2019-04-07T14:15:20.535Z,37.83
2019-04-07T14:17:52.041Z,37.00
2019-04-07T14:20:24.470Z,39.13
2019-04-07T14:22:59.281Z,35.77
2019-04-07T14:25:45.322Z,46.20
2019-04-07T14:28:16.311Z,40.40
2019-04-07T14:31:05.387Z,46.27
2019-04-07T14:33:42.967Z,41.77
2019-04-07T14:36:32.854Z,40.00
2019-04-07T14:39:07.473Z,39.93
2019-04-07T14:42:04.984Z,226.23
2019-04-07T14:44:30.879Z,110.57
2019-04-07T14:47:11.867Z,45.97
2019-04-07T14:49:47.696Z,43.93
2019-04-07T14:52:34.289Z,46.57
2019-04-07T14:55:13.988Z,39.73
2019-04-07T14:57:54.821Z,40.60
2019-04-07T15:00:39.685Z,40.80
2019-04-07T15:03:10.198Z,44.67
2019-04-07T15:05:42.131Z,48.80
2019-04-07T15:08:26.419Z,93.07
2019-04-07T15:10:58.596Z,109.07
2019-04-07T15:13:32.594Z,92.03
2019-04-07T15:16:03.443Z,69.80
2019-04-07T15:18:33.916Z,46.87
2019-04-07T15:21:04.631Z,46.53
2019-04-07T15:23:34.955Z,52.33
2019-04-07T15:26:05.320Z,46.80
2019-04-07T15:28:35.680Z,46.90
2019-04-07T15:31:06.146Z,38.30
2019-04-07T15:33:37.047Z,43.80
2019-04-07T15:36:08.928Z,45.93
2019-04-07T15:38:41.463Z,39.07
2019-04-07T15:41:14.031Z,46.70
2019-04-07T15:43:43.278Z,41.70
2019-04-07T15:46:16.713Z,38.50
2019-04-07T15:48:45.448Z,38.73
2019-04-07T15:51:18.408Z,38.63
2019-04-07T15:53:51.506Z,43.20
2019-04-07T15:56:23.955Z,40.40
2019-04-07T15:58:58.204Z,43.07
2019-04-07T16:01:26.862Z,40.80
2019-04-07T16:03:57.307Z,41.47
2019-04-07T16:06:27.961Z,38.73
2019-04-07T16:09:00.781Z,42.30
2019-04-07T16:11:30.595Z,38.70
2019-04-07T16:14:01.642Z,37.23
2019-04-07T16:16:33.227Z,40.43
2019-04-07T16:19:03.237Z,36.23
2019-04-07T16:21:33.357Z,38.20
2019-04-07T16:24:03.782Z,35.03
2019-04-07T16:26:36.986Z,37.13
2019-04-07T16:29:07.783Z,38.87
2019-04-07T16:31:37.624Z,36.73
2019-04-07T16:34:08.827Z,38.20
2019-04-07T16:36:40.114Z,42.53
2019-04-07T16:39:11.487Z,36.87
2019-04-07T16:41:44.212Z,39.27
2019-04-07T16:44:13.561Z,35.47
2019-04-07T16:46:43.714Z,32.53
2019-04-07T16:49:15.584Z,34.00
2019-04-07T16:51:45.541Z,34.80
2019-04-07T16:54:16.343Z,34.30
2019-04-07T16:56:50.777Z,32.83
2019-04-07T16:59:19.289Z,33.53
2019-04-07T17:01:49.778Z,35.17
2019-04-07T17:04:21.163Z,29.77
2019-04-07T17:07:00.205Z,32.20
2019-04-07T17:09:25.925Z,34.17
2019-04-07T17:11:54.993Z,35.23
2019-04-07T17:14:25.741Z,33.30
2019-04-07T17:16:56.722Z,29.77
2019-04-07T17:19:27.576Z,31.60
2019-04-07T17:22:00.111Z,33.97
2019-04-07T17:24:30.689Z,32.03
2019-04-07T17:27:02.958Z,33.90
2019-04-07T17:29:32.790Z,33.57
2019-04-07T17:32:03.654Z,33.73
2019-04-07T17:34:35.367Z,37.50
2019-04-07T17:37:05.808Z,32.50
2019-04-07T17:39:40.552Z,30.60
2019-04-07T17:42:12.616Z,35.53
2019-04-07T17:45:01.369Z,34.93
2019-04-07T17:47:43.072Z,33.70
2019-04-07T17:50:30.417Z,33.70
2019-04-07T17:53:14.023Z,32.30
2019-04-07T17:56:00.129Z,39.97
2019-04-07T17:58:47.859Z,33.17
2019-04-07T18:01:23.061Z,35.43
2019-04-07T18:03:59.402Z,29.47
2019-04-07T18:06:40.618Z,31.83
2019-04-07T18:09:12.895Z,36.60
2019-04-07T18:12:06.756Z,31.60
2019-04-07T18:14:41.095Z,37.20
2019-04-07T18:17:28.764Z,39.27
2019-04-07T18:20:06.487Z,33.63
2019-04-07T18:22:39.095Z,30.87
2019-04-07T18:25:11.050Z,35.20
2019-04-07T18:27:48.206Z,32.50
2019-04-07T18:30:22.048Z,34.13
2019-04-07T18:33:02.897Z,34.43
2019-04-07T18:35:37.742Z,42.20
2019-04-07T18:38:26.087Z,39.10
2019-04-07T18:41:00.359Z,41.30
2019-04-07T18:43:50.756Z,38.23
2019-04-07T18:46:20.189Z,43.10
2019-04-07T18:48:59.161Z,39.67
2019-04-07T18:51:34.180Z,37.10
2019-04-07T18:54:08.638Z,44.03
2019-04-07T18:56:48.331Z,38.90
2019-04-07T18:59:26.961Z,40.27
2019-04-07T19:01:59.916Z,41.20
2019-04-07T19:04:34.925Z,42.30
2019-04-07T19:07:15.115Z,47.17
2019-04-07T19:10:10.368Z,42.20
2019-04-07T19:12:38.497Z,37.67
2019-04-07T19:15:25.980Z,43.53
2019-04-07T19:18:02.140Z,46.97
2019-04-07T19:20:37.400Z,41.80
2019-04-07T19:23:07.802Z,47.63
2019-04-07T19:25:45.392Z,49.30
2019-04-07T19:28:16.104Z,41.57
2019-04-07T19:30:59.720Z,49.10
2019-04-07T19:33:50.475Z,44.70
2019-04-07T21:48:39.105Z,59.27
2019-04-07T21:51:15.424Z,59.57
2019-04-07T21:53:44.285Z,65.10
2019-04-07T21:56:22.301Z,58.33
2019-04-07T21:59:10.786Z,65.10
2019-04-07T22:01:59.291Z,57.37
2019-04-07T22:04:38.174Z,54.60
2019-04-07T22:07:11.175Z,56.30
2019-04-07T22:09:49.450Z,54.20
2019-04-07T22:12:17.494Z,60.90
2019-04-07T22:14:48.022Z,55.43
2019-04-07T22:17:18.140Z,55.83
2019-04-07T22:19:49.057Z,59.70
2019-04-07T22:22:19.668Z,52.03
2019-04-07T22:24:50.702Z,58.10
2019-04-07T22:27:24.570Z,54.63
2019-04-07T22:29:53.215Z,50.37
2019-04-07T22:32:24.339Z,54.40
2019-04-07T22:34:54.709Z,48.40
2019-04-07T22:37:24.828Z,54.30
2019-04-07T22:39:57.186Z,48.53
2019-04-07T22:42:26.504Z,48.67
2019-04-07T22:44:56.624Z,48.03
2019-04-07T22:47:27.340Z,49.83
2019-04-07T22:50:01.250Z,50.50
2019-04-07T22:52:30.057Z,47.27
2019-04-07T22:55:04.238Z,49.00
2019-04-07T22:57:32.130Z,51.80
2019-04-07T23:00:02.486Z,46.10
2019-04-07T23:02:32.534Z,54.53
2019-04-07T23:05:03.015Z,49.67
2019-04-07T23:07:33.224Z,47.10
2019-04-07T23:10:03.346Z,51.73
2019-04-07T23:12:33.999Z,47.50
2019-04-07T23:15:06.348Z,47.87
2019-04-07T23:17:36.492Z,49.27
2019-04-07T23:20:10.807Z,46.27
2019-04-07T23:22:41.208Z,43.37
2019-04-07T23:25:12.026Z,43.97
2019-04-07T23:27:42.372Z,47.53
2019-04-07T23:30:12.905Z,47.07
2019-04-07T23:32:43.731Z,45.60
2019-04-07T23:35:14.530Z,47.73
2019-04-07T23:37:44.593Z,44.83
2019-04-07T23:40:14.809Z,49.37
2019-04-07T23:42:44.836Z,46.70
2019-04-07T23:45:15.355Z,42.80
2019-04-07T23:47:45.371Z,41.70
2019-04-07T23:50:15.505Z,44.83
2019-04-07T23:52:45.609Z,42.97
2019-04-07T23:55:15.727Z,42.77
2019-04-07T23:57:46.503Z,45.60
